createdAt,value
2018-11-03T00:01:59.763Z,95.54
2018-11-03T00:04:28.383Z,95.84
2018-11-03T00:06:57.079Z,96.01
2018-11-03T00:09:25.712Z,96.42
2018-11-03T00:11:54.353Z,95.75
2018-11-03T00:14:23.052Z,95.37
2018-11-03T00:16:51.705Z,95.79
2018-11-03T00:19:20.375Z,94.97
2018-11-03T00:21:49.076Z,95.09
2018-11-03T00:24:17.688Z,95.40
2018-11-03T00:26:46.421Z,94.20
2018-11-03T00:29:15.101Z,93.77
2018-11-03T00:31:43.699Z,94.21
2018-11-03T00:34:12.350Z,94.92
2018-11-03T00:36:41.002Z,94.33
2018-11-03T00:39:11.505Z,94.56
2018-11-03T00:41:40.238Z,94.21
2018-11-03T00:44:09.423Z,94.44
2018-11-03T00:46:38.104Z,94.10
2018-11-03T00:49:06.875Z,94.60
2018-11-03T00:51:35.548Z,94.49
2018-11-03T00:54:04.165Z,94.83
2018-11-03T00:56:32.815Z,95.07
2018-11-03T01:01:35.273Z,95.33
2018-11-03T01:04:03.913Z,95.38
2018-11-03T01:06:32.518Z,95.84
2018-11-03T01:09:01.163Z,95.78
2018-11-03T01:11:29.863Z,95.75
2018-11-03T01:13:58.558Z,95.86
2018-11-03T01:16:27.441Z,95.11
2018-11-03T01:18:56.213Z,95.44
2018-11-03T01:21:24.915Z,95.52
2018-11-03T01:23:53.588Z,95.19
2018-11-03T01:26:22.373Z,94.96
2018-11-03T01:28:51.056Z,95.61
2018-11-03T01:31:19.720Z,95.10
2018-11-03T01:33:48.458Z,94.32
2018-11-03T01:36:17.158Z,94.99
2018-11-03T01:38:45.889Z,94.52
2018-11-03T01:41:14.637Z,94.64
2018-11-03T01:43:43.266Z,94.67
2018-11-03T01:46:11.968Z,94.27
2018-11-03T01:48:40.691Z,94.20
2018-11-03T01:51:09.329Z,93.77
2018-11-03T01:53:37.995Z,94.28
2018-11-03T01:56:06.793Z,93.48
2018-11-03T01:58:35.566Z,93.22
2018-11-03T02:01:04.229Z,93.19
2018-11-03T02:03:33.001Z,93.43
2018-11-03T02:06:01.653Z,92.87
2018-11-03T02:08:30.378Z,93.73
2018-11-03T02:10:59.097Z,93.38
2018-11-03T02:13:27.848Z,93.52
2018-11-03T02:15:56.588Z,92.88
2018-11-03T02:18:25.271Z,93.41
2018-11-03T02:20:53.998Z,93.65
2018-11-03T02:23:22.636Z,93.75
2018-11-03T02:25:51.319Z,93.95
2018-11-03T02:28:20.031Z,93.81
2018-11-03T02:30:48.719Z,92.76
2018-11-03T02:33:17.352Z,93.53
2018-11-03T02:35:45.982Z,93.55
2018-11-03T02:38:14.624Z,92.11
2018-11-03T02:40:43.303Z,93.15
2018-11-03T02:43:11.959Z,93.05
2018-11-03T02:45:40.584Z,93.49
2018-11-03T02:48:09.288Z,93.30
2018-11-03T02:50:37.959Z,91.97
2018-11-03T02:53:06.695Z,92.80
2018-11-03T02:55:35.328Z,92.02
2018-11-03T02:58:04.023Z,92.76
2018-11-03T03:00:32.819Z,92.01
2018-11-03T03:03:01.487Z,91.92
2018-11-03T03:05:30.179Z,92.49
2018-11-03T03:07:58.869Z,92.03
2018-11-03T03:10:27.698Z,92.05
2018-11-03T03:12:56.365Z,92.30
2018-11-03T03:15:25.042Z,91.95
2018-11-03T03:17:53.696Z,92.40
2018-11-03T03:20:22.363Z,92.39
2018-11-03T03:22:51.001Z,92.23
2018-11-03T03:25:19.701Z,92.27
2018-11-03T03:27:48.374Z,91.78
2018-11-03T03:30:17.061Z,91.89
2018-11-03T03:32:45.849Z,92.36
2018-11-03T03:35:14.683Z,91.99
2018-11-03T03:37:43.358Z,91.75
2018-11-03T03:40:12.129Z,92.01
2018-11-03T03:42:40.887Z,92.23
2018-11-03T03:45:10.406Z,91.97
2018-11-03T03:47:39.043Z,92.23
2018-11-03T03:50:08.846Z,92.38
2018-11-03T03:52:37.598Z,92.02
2018-11-03T03:55:06.677Z,91.40
2018-11-03T03:57:35.625Z,92.11
2018-11-03T04:00:04.352Z,92.33
2018-11-03T04:02:33.045Z,92.64
2018-11-03T04:05:01.698Z,92.00
2018-11-03T04:07:30.416Z,92.06
2018-11-03T04:09:59.108Z,92.09
2018-11-03T04:12:27.728Z,91.89
2018-11-03T04:14:56.459Z,91.67
2018-11-03T04:17:25.102Z,91.57
2018-11-03T04:19:53.736Z,91.88
2018-11-03T04:22:22.409Z,91.90
2018-11-03T04:24:51.058Z,91.88
2018-11-03T04:27:19.705Z,91.48
2018-11-03T04:29:48.339Z,91.43
2018-11-03T04:32:17.006Z,91.82
2018-11-03T04:34:45.646Z,91.26
2018-11-03T04:37:14.291Z,91.63
2018-11-03T04:39:42.923Z,91.08
2018-11-03T04:42:11.602Z,90.66
2018-11-03T04:44:40.290Z,90.61
2018-11-03T04:47:08.876Z,90.24
2018-11-03T04:49:37.578Z,90.97
2018-11-03T04:52:06.278Z,91.07
2018-11-03T04:54:35.017Z,90.65
2018-11-03T04:57:04.542Z,90.89
2018-11-03T04:59:33.250Z,90.02
2018-11-03T05:02:01.794Z,89.93
2018-11-03T05:04:30.426Z,89.90
2018-11-03T05:06:59.039Z,89.60
2018-11-03T05:09:27.682Z,89.08
2018-11-03T05:11:56.305Z,89.04
2018-11-03T05:14:24.963Z,89.20
2018-11-03T05:16:53.568Z,89.42
2018-11-03T05:19:22.186Z,89.56
2018-11-03T05:21:50.814Z,89.90
2018-11-03T05:24:19.420Z,88.97
2018-11-03T05:26:48.013Z,89.53
2018-11-03T05:29:16.628Z,88.67
2018-11-03T05:31:45.221Z,88.81
2018-11-03T05:34:13.890Z,88.90
2018-11-03T05:36:42.538Z,88.63
2018-11-03T05:39:12.381Z,88.55
2018-11-03T05:41:41.680Z,88.27
2018-11-03T05:44:10.581Z,87.94
2018-11-03T05:46:39.785Z,88.37
2018-11-03T05:49:08.370Z,88.17
2018-11-03T05:51:37.570Z,87.98
2018-11-03T05:54:06.899Z,88.43
2018-11-03T05:56:35.579Z,88.63
2018-11-03T05:59:04.715Z,88.63
2018-11-03T06:01:33.365Z,88.98
2018-11-03T06:04:02.106Z,88.47
2018-11-03T06:06:31.022Z,89.21
2018-11-03T06:08:59.807Z,88.86
2018-11-03T06:11:30.912Z,89.19
2018-11-03T06:13:59.562Z,89.96
2018-11-03T06:16:28.352Z,89.74
2018-11-03T06:18:57.118Z,89.79
2018-11-03T06:21:25.881Z,90.08
2018-11-03T06:23:56.219Z,90.29
2018-11-03T06:26:24.900Z,91.03
2018-11-03T06:28:53.678Z,90.42
2018-11-03T06:31:22.541Z,90.32
2018-11-03T06:33:51.227Z,90.98
2018-11-03T06:36:19.934Z,91.71
2018-11-03T06:38:48.594Z,91.32
2018-11-03T06:41:17.556Z,90.33
2018-11-03T06:43:46.433Z,89.66
2018-11-03T06:46:15.178Z,89.19
2018-11-03T06:48:44.181Z,88.69
2018-11-03T06:51:12.826Z,89.30
2018-11-03T06:53:41.532Z,88.52
2018-11-03T06:56:10.257Z,88.51
2018-11-03T06:58:38.890Z,88.72
2018-11-03T07:01:07.542Z,88.38
2018-11-03T07:03:36.182Z,88.31
2018-11-03T07:06:04.867Z,88.33
2018-11-03T07:08:33.555Z,88.56
2018-11-03T07:11:02.186Z,88.90
2018-11-03T07:13:30.853Z,88.87
2018-11-03T07:15:59.514Z,89.40
2018-11-03T07:18:28.210Z,89.04
2018-11-03T07:20:56.876Z,89.21
2018-11-03T07:23:25.535Z,88.67
2018-11-03T07:25:54.161Z,87.91
2018-11-03T07:28:22.817Z,87.00
2018-11-03T07:30:51.509Z,87.25
2018-11-03T07:33:20.111Z,87.75
2018-11-03T07:35:48.894Z,87.37
2018-11-03T07:38:17.549Z,87.40
2018-11-03T07:40:46.224Z,87.45
2018-11-03T07:43:14.849Z,87.36
2018-11-03T07:45:43.552Z,87.13
2018-11-03T07:48:12.177Z,86.77
2018-11-03T07:50:40.788Z,86.42
2018-11-03T07:53:09.452Z,86.11
2018-11-03T07:55:38.098Z,85.19
2018-11-03T07:58:06.746Z,84.75
2018-11-03T08:00:35.485Z,85.02
2018-11-03T08:03:04.081Z,84.11
2018-11-03T08:05:32.719Z,83.85
2018-11-03T08:08:01.552Z,84.02
2018-11-03T08:10:30.179Z,83.70
2018-11-03T08:12:58.742Z,83.94
2018-11-03T08:15:27.393Z,83.38
2018-11-03T08:17:56.030Z,83.01
2018-11-03T08:20:24.649Z,82.79
2018-11-03T08:22:53.309Z,82.22
2018-11-03T08:25:21.967Z,81.80
2018-11-03T08:27:50.725Z,81.45
2018-11-03T08:30:19.549Z,81.98
2018-11-03T08:32:48.256Z,81.70
2018-11-03T08:35:16.959Z,81.38
2018-11-03T08:37:45.673Z,79.58
2018-11-03T08:40:14.372Z,79.78
2018-11-03T08:42:43.111Z,79.02
2018-11-03T08:45:12.185Z,79.59
2018-11-03T08:47:40.852Z,79.98
2018-11-03T08:50:11.119Z,78.70
2018-11-03T08:52:39.901Z,78.83
2018-11-03T08:55:09.710Z,77.60
2018-11-03T08:57:38.433Z,77.64
2018-11-03T09:00:10.369Z,77.61
2018-11-03T09:02:39.206Z,78.28
2018-11-03T09:05:08.460Z,77.53
2018-11-03T09:07:43.791Z,78.08
2018-11-03T09:10:13.638Z,77.45
2018-11-03T09:12:42.391Z,77.57
2018-11-03T09:15:12.501Z,77.34
2018-11-03T09:17:42.038Z,77.37
2018-11-03T09:20:11.988Z,75.90
2018-11-03T09:22:40.863Z,76.21
2018-11-03T09:25:14.551Z,75.16
2018-11-03T09:27:43.782Z,75.17
2018-11-03T09:30:17.389Z,75.51
2018-11-03T09:32:46.046Z,74.82
2018-11-03T09:35:15.557Z,74.83
2018-11-03T09:37:44.257Z,74.83
2018-11-03T09:40:15.306Z,74.70
2018-11-03T09:42:45.077Z,73.90
2018-11-03T09:45:19.289Z,73.99
2018-11-03T09:47:47.962Z,73.60
2018-11-03T09:50:16.816Z,73.88
2018-11-03T09:52:45.602Z,73.73
2018-11-03T09:55:16.132Z,73.15
2018-11-03T09:57:45.079Z,72.25
2018-11-03T10:00:16.338Z,72.33
2018-11-03T10:02:45.783Z,71.57
2018-11-03T10:05:15.020Z,71.58
2018-11-03T10:07:43.729Z,71.32
2018-11-03T10:10:15.065Z,70.29
2018-11-03T10:12:43.872Z,69.74
2018-11-03T10:15:13.815Z,71.92
2018-11-03T10:17:42.902Z,71.54
2018-11-03T10:20:11.600Z,72.57
2018-11-03T10:22:40.230Z,73.02
2018-11-03T10:25:13.624Z,73.50
2018-11-03T10:27:42.763Z,72.88
2018-11-03T10:30:12.747Z,71.71
2018-11-03T10:32:41.971Z,71.50
2018-11-03T10:35:11.532Z,72.07
2018-11-03T10:37:46.894Z,72.60
2018-11-03T10:40:17.173Z,73.29
2018-11-03T10:42:45.875Z,73.26
2018-11-03T10:45:15.772Z,72.93
2018-11-03T10:47:44.591Z,72.19
2018-11-03T10:50:15.137Z,72.50
2018-11-03T10:52:44.537Z,72.89
2018-11-03T10:55:14.478Z,73.93
2018-11-03T10:57:43.388Z,73.88
2018-11-03T11:00:20.548Z,74.79
2018-11-03T11:02:54.395Z,74.36
2018-11-03T11:05:28.270Z,73.66
2018-11-03T11:08:02.024Z,73.59
2018-11-03T11:10:35.891Z,73.22
2018-11-03T11:13:12.643Z,72.91
2018-11-03T11:15:42.105Z,73.07
2018-11-03T11:18:10.793Z,73.54
2018-11-03T11:20:39.511Z,73.48
2018-11-03T11:23:08.328Z,73.33
2018-11-03T11:25:36.994Z,74.33
2018-11-03T11:28:06.007Z,74.09
2018-11-03T11:30:37.688Z,74.40
2018-11-03T11:33:08.721Z,74.60
2018-11-03T11:35:37.598Z,74.79
2018-11-03T11:38:07.999Z,74.90
2018-11-03T11:40:39.667Z,75.62
2018-11-03T11:43:10.681Z,75.03
2018-11-03T11:45:41.178Z,74.62
2018-11-03T11:48:11.749Z,73.13
2018-11-03T11:50:40.393Z,73.23
2018-11-03T11:53:09.082Z,74.14
2018-11-03T11:55:37.733Z,73.78
2018-11-03T11:58:06.781Z,74.25
2018-11-03T12:00:35.767Z,74.49
2018-11-03T12:03:04.485Z,74.86
2018-11-03T12:05:33.216Z,76.13
2018-11-03T12:08:02.026Z,76.38
2018-11-03T12:10:30.677Z,77.12
2018-11-03T12:12:59.672Z,76.16
2018-11-03T12:15:28.387Z,76.86
2018-11-03T12:17:57.274Z,77.06
2018-11-03T12:20:26.186Z,75.96
2018-11-03T12:22:55.273Z,75.56
2018-11-03T12:25:25.664Z,75.71
2018-11-03T12:27:55.220Z,75.36
2018-11-03T12:30:25.026Z,74.38
2018-11-03T12:32:53.768Z,75.61
2018-11-03T12:35:22.514Z,75.48
2018-11-03T12:37:51.138Z,75.68
2018-11-03T12:40:19.794Z,75.49
2018-11-03T12:42:48.504Z,75.16
2018-11-03T12:45:17.342Z,75.44
2018-11-03T12:47:46.604Z,75.60
2018-11-03T12:50:16.827Z,76.33
2018-11-03T12:52:45.568Z,76.30
2018-11-03T12:55:14.895Z,76.52
2018-11-03T12:57:44.077Z,76.57
2018-11-03T13:00:14.505Z,76.70
2018-11-03T13:02:44.313Z,77.00
2018-11-03T13:05:13.414Z,78.23
2018-11-03T13:07:43.306Z,77.39
2018-11-03T13:10:12.309Z,78.23
2018-11-03T13:12:41.762Z,77.65
2018-11-03T13:15:11.685Z,76.94
2018-11-03T13:17:40.488Z,76.27
2018-11-03T13:20:11.241Z,75.99
2018-11-03T13:22:40.184Z,76.59
2018-11-03T13:25:09.682Z,77.19
2018-11-03T13:27:39.236Z,78.27
2018-11-03T13:30:09.855Z,79.32
2018-11-03T13:32:38.523Z,79.20
2018-11-03T13:35:08.190Z,79.23
2018-11-03T13:37:36.728Z,78.60
2018-11-03T13:40:09.101Z,78.43
2018-11-03T13:42:37.770Z,78.76
2018-11-03T13:45:07.375Z,80.32
2018-11-03T13:47:36.656Z,80.46
2018-11-03T13:50:09.861Z,80.29
2018-11-03T13:52:38.567Z,80.18
2018-11-03T13:55:08.183Z,80.41
2018-11-03T13:57:36.866Z,81.03
2018-11-03T14:00:06.824Z,81.54
2018-11-03T14:02:35.486Z,82.06
2018-11-03T14:05:04.180Z,82.62
2018-11-03T14:10:08.152Z,82.75
2018-11-03T14:12:36.915Z,83.71
2018-11-03T14:15:06.356Z,82.74
2018-11-03T14:17:35.212Z,82.76
2018-11-03T14:20:04.363Z,83.11
2018-11-03T14:22:33.178Z,81.22
2018-11-03T14:25:01.941Z,80.70
2018-11-03T14:27:30.648Z,80.49
2018-11-03T14:29:59.269Z,80.63
2018-11-03T14:32:27.921Z,80.04
2018-11-03T14:34:56.609Z,80.15
2018-11-03T14:37:25.342Z,80.10
2018-11-03T14:39:54.025Z,81.36
2018-11-03T14:42:22.754Z,81.40
2018-11-03T14:44:51.567Z,81.76
2018-11-03T14:47:20.126Z,82.58
2018-11-03T14:49:48.916Z,82.67
2018-11-03T14:52:17.744Z,82.48
2018-11-03T14:54:51.126Z,82.66
2018-11-03T14:57:21.046Z,83.47
2018-11-03T14:59:49.867Z,83.48
2018-11-03T15:02:18.525Z,83.88
2018-11-03T15:04:47.234Z,83.48
2018-11-03T15:07:15.937Z,83.64
2018-11-03T15:09:44.732Z,83.98
2018-11-03T15:12:13.571Z,84.27
2018-11-03T15:14:42.240Z,84.15
2018-11-03T15:17:10.992Z,84.94
2018-11-03T15:19:39.703Z,85.38
2018-11-03T15:22:08.444Z,85.32
2018-11-03T15:24:37.085Z,85.88
2018-11-03T15:27:05.782Z,86.16
2018-11-03T15:29:34.534Z,85.92
2018-11-03T15:32:03.395Z,85.28
2018-11-03T15:34:32.225Z,86.23
2018-11-03T15:37:00.806Z,86.19
2018-11-03T15:39:29.651Z,85.64
2018-11-03T15:41:58.312Z,85.78
2018-11-03T15:44:27.149Z,85.93
2018-11-03T15:46:55.836Z,86.28
2018-11-03T15:49:24.565Z,86.41
2018-11-03T15:51:53.306Z,86.93
2018-11-03T15:54:22.486Z,86.55
2018-11-03T15:56:51.170Z,86.82
2018-11-03T15:59:19.824Z,87.10
2018-11-03T16:01:48.524Z,87.46
2018-11-03T16:04:17.195Z,87.53
2018-11-03T16:06:45.863Z,88.01
2018-11-03T16:09:14.551Z,87.78
2018-11-03T16:11:43.213Z,88.60
2018-11-03T16:14:11.903Z,88.84
2018-11-03T16:16:40.889Z,88.63
2018-11-03T16:19:09.690Z,88.22
2018-11-03T16:21:38.515Z,88.71
2018-11-03T16:24:07.210Z,88.80
2018-11-03T16:26:35.833Z,89.24
2018-11-03T16:29:04.467Z,88.92
2018-11-03T16:31:33.211Z,89.58
2018-11-03T16:34:02.400Z,89.16
2018-11-03T16:36:31.118Z,89.51
2018-11-03T16:38:59.783Z,89.37
2018-11-03T16:41:28.396Z,89.43
2018-11-03T16:43:57.166Z,89.44
2018-11-03T16:46:25.806Z,89.34
2018-11-03T16:48:54.483Z,89.43
2018-11-03T16:51:23.125Z,89.64
2018-11-03T16:53:51.757Z,89.01
2018-11-03T16:56:20.387Z,89.57
2018-11-03T16:58:49.170Z,89.49
2018-11-03T17:01:17.669Z,89.99
2018-11-03T17:03:46.386Z,90.01
2018-11-03T17:06:15.080Z,91.22
2018-11-03T17:08:43.739Z,91.17
2018-11-03T17:11:12.874Z,91.11
2018-11-03T17:13:41.671Z,90.52
2018-11-03T17:16:10.753Z,91.45
2018-11-03T17:18:39.475Z,91.77
2018-11-03T17:21:08.112Z,91.78
2018-11-03T17:23:36.886Z,91.32
2018-11-03T17:26:05.883Z,90.55
2018-11-03T17:28:34.629Z,90.75
2018-11-03T17:31:03.676Z,90.62
2018-11-03T17:33:32.327Z,91.59
2018-11-03T17:36:00.981Z,92.19
2018-11-03T17:38:29.654Z,91.82
2018-11-03T17:40:58.279Z,91.81
2018-11-03T17:43:26.968Z,92.17
2018-11-03T17:45:55.634Z,91.25
2018-11-03T17:48:24.770Z,91.87
2018-11-03T17:50:53.374Z,91.76
2018-11-03T17:53:22.014Z,92.01
2018-11-03T17:55:50.675Z,91.64
2018-11-03T17:58:19.352Z,91.66
2018-11-03T18:00:48.032Z,91.97
2018-11-03T18:03:16.642Z,91.83
2018-11-03T18:05:45.305Z,92.34
2018-11-03T18:08:14.033Z,92.40
2018-11-03T18:10:42.771Z,92.42
2018-11-03T18:13:11.463Z,92.60
2018-11-03T18:15:40.129Z,93.03
2018-11-03T18:18:08.810Z,93.10
2018-11-03T18:20:37.431Z,93.38
2018-11-03T18:23:07.390Z,93.73
2018-11-03T18:25:36.012Z,93.51
2018-11-03T18:28:04.650Z,93.45
2018-11-03T18:30:33.349Z,93.73
2018-11-03T18:33:02.060Z,94.14
2018-11-03T18:35:30.651Z,94.56
2018-11-03T18:37:59.505Z,94.52
2018-11-03T18:40:28.146Z,94.13
2018-11-03T18:42:56.782Z,94.55
2018-11-03T18:45:25.595Z,93.55
2018-11-03T18:47:54.296Z,93.79
2018-11-03T18:50:22.943Z,94.07
2018-11-03T18:52:51.656Z,93.85
2018-11-03T18:55:20.289Z,93.72
2018-11-03T18:57:49.011Z,93.62
2018-11-03T19:00:17.808Z,94.25
2018-11-03T19:02:46.513Z,94.47
2018-11-03T19:05:15.418Z,93.83
2018-11-03T19:07:44.137Z,94.26
2018-11-03T19:10:12.862Z,94.21
2018-11-03T19:12:41.734Z,95.33
2018-11-03T19:15:11.186Z,95.73
2018-11-03T19:17:40.091Z,96.49
2018-11-03T19:20:11.454Z,96.16
2018-11-03T19:22:40.441Z,96.58
2018-11-03T19:25:11.079Z,97.33
2018-11-03T19:27:39.992Z,97.37
2018-11-03T19:30:10.597Z,97.55
2018-11-03T19:32:40.257Z,98.88
2018-11-03T19:35:09.230Z,98.79
2018-11-03T19:37:38.085Z,99.40
2018-11-03T19:40:07.688Z,99.10
2018-11-03T19:42:36.396Z,99.77
2018-11-03T19:45:05.247Z,99.96
2018-11-03T19:47:34.740Z,100.00
2018-11-03T19:50:03.510Z,99.83
2018-11-03T19:52:32.558Z,100.00
2018-11-03T19:55:01.214Z,100.00
2018-11-03T19:57:30.184Z,100.00
2018-11-03T19:59:58.884Z,100.00
2018-11-03T20:02:27.659Z,100.00
2018-11-03T20:04:56.395Z,100.00
2018-11-03T20:07:25.221Z,100.00
2018-11-03T20:09:54.057Z,100.00
2018-11-03T20:12:24.178Z,100.00
2018-11-03T20:14:53.670Z,100.00
2018-11-03T20:17:23.007Z,100.00
2018-11-03T20:19:51.805Z,100.00
2018-11-03T20:22:20.546Z,100.00
2018-11-03T20:24:50.042Z,100.00
2018-11-03T20:27:19.128Z,100.00
2018-11-03T20:29:48.195Z,100.00
2018-11-03T20:32:17.396Z,100.00
2018-11-03T20:34:46.493Z,100.00
2018-11-03T20:37:15.337Z,100.00
2018-11-03T20:39:44.203Z,100.00
2018-11-03T20:42:13.131Z,100.00
2018-11-03T20:44:42.823Z,100.00
2018-11-03T20:47:11.535Z,100.00
2018-11-03T20:49:40.522Z,100.00
2018-11-03T20:52:09.482Z,100.00
2018-11-03T20:54:38.203Z,100.00
2018-11-03T20:57:07.004Z,100.00
2018-11-03T20:59:36.462Z,100.00
2018-11-03T21:02:05.269Z,100.00
2018-11-03T21:04:34.079Z,100.00
2018-11-03T21:07:02.938Z,100.00
2018-11-03T21:09:31.796Z,100.00
2018-11-03T21:12:00.538Z,100.00
2018-11-03T21:14:29.219Z,100.00
2018-11-03T21:16:58.005Z,100.00
2018-11-03T21:19:26.785Z,100.00
2018-11-03T21:21:55.547Z,100.00
2018-11-03T21:24:24.391Z,100.00
2018-11-03T21:26:53.185Z,100.00
2018-11-03T21:29:21.909Z,100.00
2018-11-03T21:31:51.859Z,100.00
2018-11-03T21:34:20.887Z,100.00
2018-11-03T21:36:49.548Z,100.00
2018-11-03T21:39:18.350Z,100.00
2018-11-03T21:41:47.088Z,100.00
2018-11-03T21:44:15.777Z,100.00
2018-11-03T21:46:44.558Z,100.00
2018-11-03T21:49:13.418Z,100.00
2018-11-03T21:51:42.113Z,100.00
2018-11-03T21:54:10.969Z,100.00
2018-11-03T21:56:39.659Z,100.00
2018-11-03T21:59:08.388Z,100.00
2018-11-03T22:01:37.166Z,100.00
2018-11-03T22:04:05.963Z,100.00
2018-11-03T22:06:34.657Z,100.00
2018-11-03T22:09:03.552Z,100.00
2018-11-03T22:11:35.193Z,100.00
2018-11-03T22:14:03.876Z,100.00
2018-11-03T22:16:32.545Z,100.00
2018-11-03T22:19:01.214Z,100.00
2018-11-03T22:21:30.905Z,100.00
2018-11-03T22:24:00.255Z,100.00
2018-11-03T22:26:29.076Z,100.00
2018-11-03T22:28:58.001Z,100.00
2018-11-03T22:31:27.337Z,100.00
2018-11-03T22:33:56.618Z,100.00
2018-11-03T22:36:25.502Z,100.00
2018-11-03T22:38:54.184Z,100.00
2018-11-03T22:41:23.078Z,100.00
2018-11-03T22:43:52.041Z,100.00
2018-11-03T22:46:20.755Z,100.00
2018-11-03T22:48:49.408Z,100.00
2018-11-03T22:51:18.179Z,100.00
2018-11-03T22:53:46.922Z,100.00
2018-11-03T22:56:15.770Z,100.00
2018-11-03T22:58:44.487Z,100.00
2018-11-03T23:01:13.121Z,100.00
2018-11-03T23:03:41.861Z,100.00
2018-11-03T23:06:10.561Z,100.00
2018-11-03T23:08:39.275Z,100.00
2018-11-03T23:11:08.026Z,100.00
2018-11-03T23:13:36.774Z,100.00
2018-11-03T23:16:05.698Z,100.00
2018-11-03T23:18:34.331Z,100.00
2018-11-03T23:21:03.139Z,100.00
2018-11-03T23:23:31.860Z,100.00
2018-11-03T23:26:00.629Z,100.00
2018-11-03T23:28:29.519Z,100.00
2018-11-03T23:30:58.237Z,100.00
2018-11-03T23:33:26.986Z,100.00
2018-11-03T23:35:55.744Z,100.00
2018-11-03T23:38:24.403Z,100.00
2018-11-03T23:40:53.108Z,100.00
2018-11-03T23:43:21.802Z,100.00
2018-11-03T23:45:50.982Z,100.00
2018-11-03T23:48:19.733Z,100.00
2018-11-03T23:50:48.446Z,100.00
2018-11-03T23:53:17.292Z,100.00
2018-11-03T23:55:45.912Z,100.00
2018-11-03T23:58:14.577Z,100.00
